Time;durP1;ratioP1;P1;durP2;ratioP2;P2;SDS_P1;SDS_P2;PMS_P1;PMS_P2;Temp;Humidity;BMP_temperature;BMP_pressure;BME280_temperature;BME280_humidity;BME280_pressure;Samples;Min_cycle;Max_cycle;Signal;HPM_P1;HPM_P2
2023/07/04 00:01:06;;;;;;;10.10;1.80;;;13.70;99.90;;;;;;5063188;28;20193;-65
2023/07/04 00:03:34;;;;;;;3.53;1.50;;;13.60;99.90;;;;;;5064584;28;21415;-65
2023/07/04 00:06:01;;;;;;;4.80;2.42;;;13.60;99.90;;;;;;5065199;28;20122;-63
2023/07/04 00:08:29;;;;;;;4.45;2.00;;;13.60;99.90;;;;;;5063907;28;20101;-63
2023/07/04 00:10:57;;;;;;;5.63;1.88;;;13.60;99.90;;;;;;5064271;28;20799;-64
2023/07/04 00:13:26;;;;;;;2.97;1.50;;;13.60;99.90;;;;;;5065024;28;20044;-64
2023/07/04 00:15:54;;;;;;;4.40;1.95;;;13.50;99.90;;;;;;5063438;28;20082;-64
2023/07/04 00:18:24;;;;;;;4.78;2.83;;;13.60;99.90;;;;;;5063257;28;20158;-64
2023/07/04 00:20:54;;;;;;;5.55;2.40;;;13.60;99.90;;;;;;5064078;28;20082;-64
2023/07/04 00:23:27;;;;;;;3.38;1.85;;;13.50;99.90;;;;;;5064853;28;20257;-63
2023/07/04 00:25:54;;;;;;;5.75;1.70;;;13.50;99.90;;;;;;5063375;28;20055;-64
2023/07/04 00:28:23;;;;;;;4.70;2.03;;;13.50;99.90;;;;;;5064683;28;20065;-64
2023/07/04 00:30:54;;;;;;;3.88;2.20;;;13.50;99.90;;;;;;5063955;28;20044;-65
2023/07/04 00:33:25;;;;;;;5.45;1.73;;;13.50;99.90;;;;;;5063229;28;20490;-66
2023/07/04 00:36:07;;;;;;;7.00;2.10;;;13.50;99.90;;;;;;5045272;28;20052;-64
2023/07/04 00:38:36;;;;;;;4.75;2.10;;;13.60;99.90;;;;;;5062294;28;20048;-65
2023/07/04 00:41:09;;;;;;;8.73;1.80;;;13.60;99.90;;;;;;5064438;28;20514;-65
2023/07/04 00:44:08;;;;;;;5.28;1.63;;;13.60;99.90;;;;;;5068011;28;20040;-64
2023/07/04 00:46:40;;;;;;;13.57;3.50;;;13.60;99.90;;;;;;5046390;28;20101;-63
2023/07/04 00:49:18;;;;;;;4.13;2.00;;;13.60;99.90;;;;;;5047835;28;20143;-64
2023/07/04 00:51:50;;;;;;;5.03;1.92;;;13.60;99.90;;;;;;5049548;28;20048;-64
2023/07/04 00:54:23;;;;;;;7.55;2.25;;;13.60;99.90;;;;;;5049865;28;20052;-64
2023/07/04 00:56:58;;;;;;;8.68;2.58;;;13.60;99.90;;;;;;5067744;28;20040;-64
2023/07/04 00:59:27;;;;;;;5.65;1.58;;;13.60;99.90;;;;;;5067074;28;20105;-64
2023/07/04 01:01:56;;;;;;;7.82;2.88;;;13.60;99.90;;;;;;5049284;28;20060;-65
2023/07/04 01:04:23;;;;;;;4.13;1.58;;;13.50;99.90;;;;;;5067194;28;20136;-65
2023/07/04 01:06:59;;;;;;;5.32;1.73;;;13.50;99.90;;;;;;5050090;28;20059;-64
2023/07/04 01:09:28;;;;;;;10.75;2.75;;;13.50;99.90;;;;;;5067303;28;20060;-63
2023/07/04 01:11:55;;;;;;;8.27;2.60;;;13.50;99.90;;;;;;5068490;28;20125;-64
2023/07/04 01:14:25;;;;;;;5.55;2.72;;;13.40;99.90;;;;;;5068154;28;20050;-66
2023/07/04 01:16:53;;;;;;;4.55;1.83;;;13.40;99.90;;;;;;5065667;28;20059;-64
2023/07/04 01:19:32;;;;;;;8.38;2.75;;;13.30;99.90;;;;;;5067361;28;20048;-64
2023/07/04 01:22:07;;;;;;;4.75;1.90;;;13.40;99.90;;;;;;5048253;28;20808;-65
2023/07/04 01:24:59;;;;;;;6.25;1.98;;;13.40;99.90;;;;;;5064177;28;20503;-65
2023/07/04 01:27:28;;;;;;;8.45;2.97;;;13.40;99.90;;;;;;5066655;28;21331;-65
2023/07/04 01:30:00;;;;;;;6.97;1.90;;;13.40;99.90;;;;;;5067946;28;20154;-64
2023/07/04 01:32:40;;;;;;;4.95;1.80;;;13.40;99.90;;;;;;5067278;28;20071;-64
2023/07/04 01:35:08;;;;;;;4.97;1.80;;;13.50;99.90;;;;;;5063776;28;20413;-64
2023/07/04 01:37:35;;;;;;;7.40;2.63;;;13.50;99.90;;;;;;5045813;28;20481;-63
2023/07/04 01:40:07;;;;;;;7.32;1.95;;;13.50;99.90;;;;;;5064976;28;20172;-64
2023/07/04 01:42:36;;;;;;;7.05;2.63;;;13.60;99.90;;;;;;5061381;28;20614;-63
2023/07/04 01:45:05;;;;;;;7.20;2.95;;;13.60;99.90;;;;;;5067403;28;20048;-65
2023/07/04 01:47:34;;;;;;;10.13;4.00;;;13.60;99.90;;;;;;5068662;28;20135;-64
2023/07/04 01:50:02;;;;;;;5.55;2.45;;;13.60;99.90;;;;;;5066720;28;21150;-63
2023/07/04 01:52:30;;;;;;;8.07;3.30;;;13.70;99.90;;;;;;5065236;28;20072;-65
2023/07/04 01:54:57;;;;;;;5.97;2.08;;;13.70;99.90;;;;;;5050858;28;20133;-64
2023/07/04 01:57:24;;;;;;;9.77;2.25;;;13.70;99.90;;;;;;5050211;28;20056;-63
2023/07/04 01:59:51;;;;;;;5.90;2.25;;;13.70;99.90;;;;;;5050869;28;20079;-64
2023/07/04 02:02:18;;;;;;;5.50;2.08;;;13.70;99.90;;;;;;5065120;28;20141;-65
2023/07/04 02:04:45;;;;;;;14.50;4.50;;;13.70;99.90;;;;;;5067666;28;20047;-62
2023/07/04 02:07:12;;;;;;;5.60;1.70;;;13.70;99.90;;;;;;5067369;28;20055;-66
2023/07/04 02:09:39;;;;;;;9.65;3.05;;;13.80;99.90;;;;;;5065781;28;20060;-63
2023/07/04 02:12:07;;;;;;;3.47;1.98;;;13.80;99.90;;;;;;5067596;28;20850;-65
2023/07/04 02:14:34;;;;;;;4.63;1.80;;;13.80;99.90;;;;;;5067452;28;20059;-65
2023/07/04 02:17:01;;;;;;;5.20;1.55;;;13.70;99.90;;;;;;5048742;28;20113;-64
2023/07/04 02:19:28;;;;;;;4.40;1.60;;;13.70;99.90;;;;;;5050069;28;20056;-65
2023/07/04 02:21:54;;;;;;;4.60;1.60;;;13.60;99.90;;;;;;5067055;28;20115;-63
2023/07/04 02:24:23;;;;;;;4.82;2.05;;;13.60;99.90;;;;;;5065295;28;20055;-65
2023/07/04 02:26:50;;;;;;;6.93;1.63;;;13.50;99.90;;;;;;5065621;28;20084;-65
2023/07/04 02:29:17;;;;;;;6.00;2.25;;;13.60;99.90;;;;;;5048561;28;20086;-64
2023/07/04 02:31:44;;;;;;;7.43;1.50;;;13.60;99.90;;;;;;5066983;28;20123;-64
2023/07/04 02:34:11;;;;;;;4.65;2.42;;;13.50;99.90;;;;;;5066770;28;20512;-64
2023/07/04 02:36:38;;;;;;;3.05;1.50;;;13.50;99.90;;;;;;5048484;28;20052;-63
2023/07/04 02:39:05;;;;;;;5.35;1.50;;;13.50;99.90;;;;;;5044105;28;20788;-64
2023/07/04 02:41:32;;;;;;;3.22;1.42;;;13.50;99.90;;;;;;5048433;28;20044;-65
2023/07/04 02:44:00;;;;;;;9.10;2.67;;;13.50;99.90;;;;;;5050080;28;20052;-64
2023/07/04 02:46:27;;;;;;;7.65;2.42;;;13.50;99.90;;;;;;5041198;28;20045;-64
2023/07/04 02:48:59;;;;;;;7.30;2.08;;;13.50;99.90;;;;;;5049792;28;21072;-64
2023/07/04 02:51:25;;;;;;;3.22;2.35;;;13.50;99.90;;;;;;5066072;28;20075;-65
2023/07/04 02:53:52;;;;;;;5.68;2.88;;;13.50;99.90;;;;;;5047434;28;20048;-63
2023/07/04 02:56:19;;;;;;;4.05;2.28;;;13.50;99.90;;;;;;5046729;28;20060;-64
2023/07/04 02:58:47;;;;;;;4.45;2.55;;;13.60;99.90;;;;;;5049434;28;20052;-64
2023/07/04 03:01:14;;;;;;;4.68;1.95;;;13.60;99.90;;;;;;5067149;28;20047;-65
2023/07/04 03:03:42;;;;;;;4.80;2.53;;;13.60;99.90;;;;;;5051674;28;20137;-64
2023/07/04 03:06:10;;;;;;;3.83;2.30;;;13.60;99.90;;;;;;5047360;28;20056;-64
2023/07/04 03:08:36;;;;;;;4.38;1.70;;;13.60;99.90;;;;;;5064593;28;20245;-64
2023/07/04 03:11:04;;;;;;;2.28;1.70;;;13.60;99.90;;;;;;5064302;28;20052;-65
2023/07/04 03:13:33;;;;;;;5.38;1.95;;;13.60;99.90;;;;;;5064353;28;20611;-64
2023/07/04 03:16:01;;;;;;;3.65;1.73;;;13.60;99.90;;;;;;5050576;28;20052;-63
2023/07/04 03:18:28;;;;;;;9.85;2.50;;;13.60;99.90;;;;;;5067242;28;20048;-64
2023/07/04 03:20:55;;;;;;;5.53;1.80;;;13.60;99.90;;;;;;5065453;28;20071;-65
2023/07/04 03:23:22;;;;;;;6.65;2.97;;;13.60;99.90;;;;;;5066930;28;20558;-63
2023/07/04 03:25:49;;;;;;;19.20;2.70;;;13.60;99.90;;;;;;5047126;28;20052;-65
2023/07/04 03:28:17;;;;;;;4.45;1.92;;;13.70;99.90;;;;;;5060421;28;20062;-65
2023/07/04 03:30:45;;;;;;;5.15;2.25;;;13.70;99.90;;;;;;5063667;28;20048;-63
2023/07/04 03:33:13;;;;;;;9.80;2.88;;;13.70;99.90;;;;;;5048165;28;20050;-63
2023/07/04 03:35:40;;;;;;;4.63;1.60;;;13.70;99.90;;;;;;5047966;28;20131;-63
2023/07/04 03:38:26;;;;;;;10.10;2.92;;;13.70;99.90;;;;;;5049309;28;20497;-64
2023/07/04 03:40:53;;;;;;;5.10;2.00;;;13.70;99.90;;;;;;5045921;28;20059;-65
2023/07/04 03:43:22;;;;;;;4.78;2.00;;;13.80;99.90;;;;;;5046586;28;20216;-65
2023/07/04 03:45:49;;;;;;;6.38;2.03;;;13.80;99.90;;;;;;5062715;28;20044;-65
2023/07/04 03:48:16;;;;;;;7.70;2.53;;;13.80;99.90;;;;;;5063902;28;20056;-65
2023/07/04 03:50:44;;;;;;;2.60;1.75;;;13.90;99.90;;;;;;5045725;28;20051;-64
2023/07/04 03:53:11;;;;;;;10.80;2.20;;;13.90;99.90;;;;;;5065636;28;20063;-65
2023/07/04 03:55:38;;;;;;;2.20;1.75;;;13.90;99.90;;;;;;5063005;28;20080;-64
2023/07/04 03:58:05;;;;;;;2.40;1.83;;;13.90;99.90;;;;;;5042112;28;20470;-63
2023/07/04 04:00:32;;;;;;;5.40;2.20;;;13.90;99.90;;;;;;5063437;28;20100;-65
2023/07/04 04:02:59;;;;;;;8.88;2.25;;;14.00;99.90;;;;;;5065171;28;20059;-64
2023/07/04 04:05:28;;;;;;;4.45;2.42;;;14.00;99.90;;;;;;5065317;28;20197;-63
2023/07/04 04:07:55;;;;;;;7.18;2.97;;;14.00;99.90;;;;;;5065112;28;20234;-63
2023/07/04 04:10:22;;;;;;;4.93;2.53;;;14.10;99.90;;;;;;5064198;28;20658;-64
2023/07/04 04:12:49;;;;;;;9.50;2.78;;;14.10;99.90;;;;;;5064761;28;20085;-64
2023/07/04 04:15:16;;;;;;;12.90;2.60;;;14.10;99.90;;;;;;5065644;28;20052;-64
2023/07/04 04:17:43;;;;;;;9.70;2.33;;;14.10;99.90;;;;;;5063514;28;20047;-63
2023/07/04 04:20:10;;;;;;;7.97;2.38;;;14.10;99.90;;;;;;5066521;28;20044;-65
2023/07/04 04:22:44;;;;;;;6.22;2.42;;;14.20;99.90;;;;;;5064207;28;20915;-63
2023/07/04 04:25:13;;;;;;;10.55;2.35;;;14.20;99.90;;;;;;5048298;28;20409;-65
2023/07/04 04:27:42;;;;;;;9.03;1.83;;;14.20;99.90;;;;;;5063830;28;20059;-65
2023/07/04 04:30:10;;;;;;;6.80;2.00;;;14.20;99.90;;;;;;5064270;28;20052;-64
2023/07/04 04:32:38;;;;;;;5.07;2.10;;;14.20;99.90;;;;;;5043630;28;20079;-66
2023/07/04 04:35:08;;;;;;;6.80;1.70;;;14.30;99.90;;;;;;5065305;28;20056;-66
2023/07/04 04:37:35;;;;;;;4.10;2.10;;;14.30;99.90;;;;;;5064705;28;20044;-64
2023/07/04 04:40:05;;;;;;;7.28;2.45;;;14.30;99.90;;;;;;5054275;28;20467;-64
2023/07/04 04:42:34;;;;;;;6.38;2.33;;;14.30;99.90;;;;;;5063728;28;20048;-63
2023/07/04 04:45:03;;;;;;;5.40;3.33;;;14.30;99.90;;;;;;5064065;28;20127;-63
2023/07/04 04:47:33;;;;;;;5.45;2.17;;;14.20;99.90;;;;;;5062723;28;20125;-68
2023/07/04 04:50:01;;;;;;;3.42;1.73;;;14.30;99.90;;;;;;5062874;28;20819;-64
2023/07/04 04:52:31;;;;;;;7.43;2.25;;;14.30;99.90;;;;;;5063952;28;20502;-64
2023/07/04 04:55:01;;;;;;;7.00;2.20;;;14.30;99.90;;;;;;5063878;28;20473;-63
2023/07/04 04:57:29;;;;;;;8.32;2.03;;;14.30;99.90;;;;;;5063844;28;20052;-66
2023/07/04 04:59:59;;;;;;;6.30;1.98;;;14.40;99.90;;;;;;5062439;28;20378;-65
2023/07/04 05:02:29;;;;;;;4.18;1.67;;;14.40;99.90;;;;;;5062180;28;20152;-65
2023/07/04 05:04:56;;;;;;;4.10;2.43;;;14.40;99.90;;;;;;5060878;28;20132;-63
2023/07/04 05:07:24;;;;;;;7.25;2.45;;;14.40;99.90;;;;;;5062701;28;20055;-64
2023/07/04 05:09:54;;;;;;;7.03;1.80;;;14.40;99.90;;;;;;5062454;28;20052;-63
2023/07/04 05:12:21;;;;;;;7.25;2.58;;;14.50;99.90;;;;;;5062716;28;20070;-65
2023/07/04 05:14:48;;;;;;;3.50;1.65;;;14.40;99.90;;;;;;5063032;28;20123;-65
2023/07/04 05:17:16;;;;;;;8.15;1.75;;;14.50;99.90;;;;;;5062126;28;20052;-65
2023/07/04 05:19:46;;;;;;;4.22;1.88;;;14.40;99.90;;;;;;5062107;28;20127;-64
2023/07/04 05:22:13;;;;;;;3.78;1.77;;;14.50;99.90;;;;;;5064537;28;20166;-64
2023/07/04 05:24:39;;;;;;;4.40;1.85;;;14.50;99.90;;;;;;5064151;28;20560;-66
2023/07/04 05:27:06;;;;;;;4.72;2.08;;;14.50;99.90;;;;;;5065662;28;20250;-63
2023/07/04 05:29:33;;;;;;;6.30;2.15;;;14.60;99.90;;;;;;5065513;28;20121;-63
2023/07/04 05:32:00;;;;;;;3.17;1.67;;;14.60;99.90;;;;;;5066706;28;20272;-66
2023/07/04 05:34:27;;;;;;;8.20;2.85;;;14.60;99.90;;;;;;5066093;28;20097;-64
2023/07/04 05:36:54;;;;;;;8.18;2.22;;;14.70;99.90;;;;;;5065217;28;20076;-65
2023/07/04 05:39:21;;;;;;;3.53;1.70;;;14.70;99.90;;;;;;5065534;28;20044;-65
2023/07/04 05:41:48;;;;;;;5.32;1.85;;;14.80;99.90;;;;;;5064991;28;20331;-65
2023/07/04 05:44:17;;;;;;;6.68;2.42;;;14.80;99.90;;;;;;5064881;28;20129;-64
2023/07/04 05:46:44;;;;;;;2.33;2.03;;;14.80;99.90;;;;;;5066771;28;20051;-65
2023/07/04 05:49:10;;;;;;;3.53;1.77;;;14.90;99.90;;;;;;5063807;28;20122;-64
2023/07/04 05:51:37;;;;;;;6.72;2.30;;;14.90;99.90;;;;;;5064729;28;20059;-65
2023/07/04 05:54:04;;;;;;;4.10;1.30;;;14.90;99.90;;;;;;5066244;28;20036;-64
2023/07/04 05:56:31;;;;;;;2.90;1.77;;;14.90;99.90;;;;;;5064750;28;20482;-66
2023/07/04 05:59:00;;;;;;;5.53;1.73;;;15.00;99.90;;;;;;5065778;28;20048;-63
2023/07/04 06:01:39;;;;;;;5.78;1.75;;;15.10;99.90;;;;;;5065926;28;20055;-64
2023/07/04 06:04:08;;;;;;;5.30;2.20;;;15.10;99.90;;;;;;5065091;28;20041;-65
2023/07/04 06:06:44;;;;;;;6.53;1.42;;;15.10;99.90;;;;;;5065707;28;20051;-65
2023/07/04 06:09:17;;;;;;;8.27;2.25;;;15.20;99.90;;;;;;5062969;28;20118;-64
2023/07/04 06:11:45;;;;;;;4.28;1.58;;;15.20;99.90;;;;;;5064610;28;20036;-66
2023/07/04 06:14:27;;;;;;;11.73;2.38;;;15.30;99.90;;;;;;5065251;28;20043;-65
2023/07/04 06:16:59;;;;;;;6.50;2.15;;;15.30;99.90;;;;;;5062994;28;20566;-65
2023/07/04 06:19:25;;;;;;;5.07;1.92;;;15.30;99.90;;;;;;5065653;28;20091;-67
2023/07/04 06:21:52;;;;;;;11.15;2.65;;;15.20;99.90;;;;;;5065767;28;20079;-66
2023/07/04 06:24:20;;;;;;;4.15;2.15;;;15.20;99.90;;;;;;5064677;28;20055;-65
2023/07/04 06:26:48;;;;;;;8.82;2.67;;;15.20;99.90;;;;;;5066431;28;20131;-64
2023/07/04 06:29:15;;;;;;;7.25;2.95;;;15.10;99.90;;;;;;5066745;28;20064;-64
2023/07/04 06:31:42;;;;;;;2.92;1.92;;;15.10;99.90;;;;;;5065350;28;20662;-63
2023/07/04 06:34:11;;;;;;;2.88;1.88;;;15.10;99.90;;;;;;5066609;28;20050;-65
2023/07/04 06:36:38;;;;;;;8.48;1.95;;;15.20;99.90;;;;;;5067658;28;20052;-63
2023/07/04 06:39:05;;;;;;;5.43;2.17;;;15.30;99.90;;;;;;5065519;28;20040;-63
2023/07/04 06:41:32;;;;;;;6.60;2.10;;;15.30;99.90;;;;;;5065121;28;21212;-66
2023/07/04 06:43:59;;;;;;;8.35;3.03;;;15.30;99.90;;;;;;5065877;28;20052;-65
2023/07/04 06:46:26;;;;;;;3.95;1.67;;;15.30;99.90;;;;;;5065977;28;20048;-64
2023/07/04 06:48:53;;;;;;;6.50;2.08;;;15.30;99.90;;;;;;5066229;28;20048;-65
2023/07/04 06:51:20;;;;;;;6.68;1.63;;;15.30;99.90;;;;;;5067208;28;21384;-65
2023/07/04 06:53:48;;;;;;;6.30;1.95;;;15.40;99.90;;;;;;5066107;28;20126;-66
2023/07/04 06:56:20;;;;;;;4.07;2.20;;;15.40;99.90;;;;;;5064825;28;20200;-65
2023/07/04 06:58:53;;;;;;;6.95;1.70;;;15.40;99.90;;;;;;5067175;28;20044;-65
2023/07/04 07:01:28;;;;;;;6.55;2.10;;;15.20;99.90;;;;;;5066090;28;20052;-64
2023/07/04 07:03:57;;;;;;;4.25;2.33;;;15.10;99.90;;;;;;5065227;28;20079;-65
2023/07/04 07:06:25;;;;;;;5.95;2.28;;;15.00;99.90;;;;;;5064919;28;20127;-64
2023/07/04 07:08:52;;;;;;;4.53;1.83;;;14.90;99.90;;;;;;5064263;28;20059;-64
2023/07/04 07:11:21;;;;;;;8.45;2.28;;;14.90;99.90;;;;;;5062337;28;20050;-64
2023/07/04 07:13:50;;;;;;;6.43;2.13;;;14.70;99.90;;;;;;5065048;28;20044;-65
2023/07/04 07:16:22;;;;;;;4.78;1.52;;;14.60;99.90;;;;;;5063966;28;20050;-63
2023/07/04 07:18:51;;;;;;;6.28;1.60;;;14.60;99.90;;;;;;5065461;28;20131;-63
2023/07/04 07:21:21;;;;;;;5.63;1.45;;;14.50;99.90;;;;;;5065331;28;20075;-63
2023/07/04 07:23:49;;;;;;;8.48;1.30;;;14.40;99.90;;;;;;5064385;28;20051;-62
2023/07/04 07:26:23;;;;;;;5.40;1.77;;;14.30;99.90;;;;;;5066001;28;20054;-65
2023/07/04 07:28:50;;;;;;;6.78;2.10;;;14.40;99.90;;;;;;5063736;28;20040;-64
2023/07/04 07:31:20;;;;;;;3.80;1.50;;;14.40;99.90;;;;;;5064417;28;20476;-65
2023/07/04 07:33:49;;;;;;;2.80;1.50;;;14.50;99.90;;;;;;5065752;28;20048;-64
2023/07/04 07:36:20;;;;;;;5.35;1.70;;;14.60;99.90;;;;;;5064740;28;20051;-64
2023/07/04 07:38:49;;;;;;;5.78;1.92;;;14.70;99.90;;;;;;5064100;28;20040;-66
2023/07/04 07:41:17;;;;;;;7.93;2.10;;;14.80;99.90;;;;;;5064487;28;20044;-65
2023/07/04 07:43:44;;;;;;;4.93;2.90;;;15.00;99.90;;;;;;5062635;28;20117;-65
2023/07/04 07:46:16;;;;;;;4.90;1.80;;;15.00;99.90;;;;;;5064417;28;20141;-66
2023/07/04 07:48:43;;;;;;;3.03;1.65;;;15.10;99.90;;;;;;5065696;28;21432;-63
2023/07/04 07:51:12;;;;;;;3.30;1.95;;;15.20;99.90;;;;;;5063537;28;21228;-63
2023/07/04 07:53:41;;;;;;;4.40;2.65;;;15.30;99.90;;;;;;5065861;28;21043;-66
2023/07/04 07:56:10;;;;;;;4.78;1.40;;;15.40;99.90;;;;;;5064649;28;20055;-66
2023/07/04 07:58:38;;;;;;;5.93;1.15;;;15.40;99.90;;;;;;5065071;28;20557;-65
2023/07/04 08:01:17;;;;;;;4.07;1.67;;;15.30;99.90;;;;;;5064120;28;20040;-65
2023/07/04 08:03:45;;;;;;;6.20;1.48;;;15.20;99.90;;;;;;5064959;28;20143;-64
2023/07/04 08:06:30;;;;;;;3.33;1.55;;;15.10;99.90;;;;;;5065763;28;20052;-67
2023/07/04 08:08:58;;;;;;;3.40;1.20;;;15.00;99.90;;;;;;5063192;28;20482;-63
2023/07/04 08:11:26;;;;;;;3.70;1.67;;;14.90;99.90;;;;;;5064908;28;20047;-64
2023/07/04 08:13:54;;;;;;;2.63;1.48;;;14.80;99.90;;;;;;5062762;28;20154;-64
2023/07/04 08:16:28;;;;;;;1.65;1.20;;;14.70;99.90;;;;;;5060536;28;20052;-65
2023/07/04 08:18:56;;;;;;;4.22;1.85;;;14.60;99.90;;;;;;5062829;28;20048;-64
2023/07/04 08:21:24;;;;;;;5.63;1.90;;;14.60;99.90;;;;;;5061418;28;20170;-64
2023/07/04 08:23:50;;;;;;;4.22;1.65;;;14.70;99.90;;;;;;5061153;28;20829;-65
2023/07/04 08:26:20;;;;;;;5.65;1.60;;;14.80;99.90;;;;;;5060819;28;20051;-65
2023/07/04 08:28:47;;;;;;;5.50;1.58;;;14.80;99.90;;;;;;5062598;28;20593;-65
2023/07/04 08:31:18;;;;;;;8.05;2.47;;;14.80;99.90;;;;;;5061626;28;20040;-64
2023/07/04 08:33:46;;;;;;;3.45;1.50;;;14.80;99.90;;;;;;5042931;28;21352;-64
2023/07/04 08:36:14;;;;;;;3.10;1.10;;;14.90;99.90;;;;;;5063019;28;20151;-64
2023/07/04 08:38:42;;;;;;;4.15;1.88;;;15.10;99.90;;;;;;5063753;28;20044;-69
2023/07/04 08:41:23;;;;;;;4.20;2.00;;;15.20;99.90;;;;;;5063367;28;20080;-64
2023/07/04 08:43:59;;;;;;;3.38;1.10;;;15.40;99.90;;;;;;5063663;28;20793;-64
2023/07/04 08:46:30;;;;;;;4.38;1.67;;;15.70;99.90;;;;;;5063195;28;20060;-64
2023/07/04 08:48:57;;;;;;;10.20;2.70;;;15.80;99.90;;;;;;5061780;28;20067;-65
2023/07/04 08:51:35;;;;;;;2.33;1.38;;;16.00;99.90;;;;;;5063573;28;20122;-64
2023/07/04 08:54:07;;;;;;;5.78;2.25;;;16.20;99.90;;;;;;5062551;28;20055;-65
2023/07/04 08:56:37;;;;;;;4.63;1.75;;;16.40;99.90;;;;;;5064210;28;20043;-65
2023/07/04 08:59:23;;;;;;;9.15;1.48;;;16.40;99.90;;;;;;5063076;28;20501;-63
2023/07/04 09:02:02;;;;;;;4.25;2.30;;;16.60;99.90;;;;;;5065801;28;20051;-66
2023/07/04 09:04:48;;;;;;;4.87;1.30;;;16.80;99.90;;;;;;5066975;28;20048;-65
2023/07/04 09:07:35;;;;;;;2.13;1.92;;;16.90;99.90;;;;;;5067704;28;21025;-63
2023/07/04 09:10:17;;;;;;;5.90;1.55;;;16.90;99.90;;;;;;5067829;28;20137;-65
2023/07/04 09:12:45;;;;;;;2.28;1.08;;;17.00;99.90;;;;;;5068431;28;20133;-65
2023/07/04 09:15:17;;;;;;;7.80;1.98;;;17.10;99.90;;;;;;5067963;28;20101;-64
2023/07/04 09:17:57;;;;;;;3.13;1.45;;;17.30;99.90;;;;;;5067866;28;20059;-64
2023/07/04 09:20:49;;;;;;;4.75;1.58;;;17.20;99.90;;;;;;5065814;28;20481;-67
2023/07/04 09:23:22;;;;;;;3.70;1.13;;;17.20;99.90;;;;;;5067162;28;20072;-65
2023/07/04 09:25:53;;;;;;;6.15;1.80;;;17.10;99.90;;;;;;5066480;28;20048;-65
2023/07/04 09:28:20;;;;;;;3.70;1.35;;;17.00;99.90;;;;;;5068461;28;20044;-65
2023/07/04 09:30:47;;;;;;;2.00;1.30;;;17.00;99.90;;;;;;5069794;28;20082;-64
2023/07/04 09:33:18;;;;;;;2.03;1.02;;;16.90;99.90;;;;;;5069800;28;20084;-65
2023/07/04 09:35:46;;;;;;;5.78;1.30;;;17.00;99.90;;;;;;5067276;28;20441;-64
2023/07/04 09:38:13;;;;;;;4.43;1.67;;;17.00;99.90;;;;;;5068728;28;20036;-64
2023/07/04 09:40:52;;;;;;;8.48;2.40;;;17.40;99.90;;;;;;5072342;28;20125;-64
2023/07/04 09:43:38;;;;;;;3.50;1.63;;;17.80;99.90;;;;;;5069355;28;20054;-65
2023/07/04 09:46:26;;;;;;;2.60;1.38;;;17.90;99.90;;;;;;5070664;28;20151;-65
2023/07/04 09:49:14;;;;;;;8.43;2.75;;;17.70;99.90;;;;;;5072412;28;20054;-62
2023/07/04 09:51:41;;;;;;;2.92;1.13;;;17.80;99.90;;;;;;5071182;28;20621;-63
2023/07/04 09:54:13;;;;;;;1.77;1.00;;;17.90;99.90;;;;;;5070998;28;20055;-64
2023/07/04 09:56:41;;;;;;;3.15;0.95;;;18.30;99.90;;;;;;5070880;28;20040;-63
2023/07/04 09:59:16;;;;;;;5.30;1.45;;;18.50;99.90;;;;;;5069732;28;21499;-64
2023/07/04 10:01:50;;;;;;;2.92;1.50;;;18.70;99.90;;;;;;5071455;28;20098;-65
2023/07/04 10:04:26;;;;;;;6.18;1.80;;;18.80;99.90;;;;;;5082108;28;20419;-63
2023/07/04 10:06:58;;;;;;;8.93;2.55;;;18.90;99.90;;;;;;5080561;28;20048;-64
2023/07/04 10:09:26;;;;;;;8.18;1.55;;;18.80;99.90;;;;;;5082144;28;20059;-64
2023/07/04 10:12:14;;;;;;;8.50;1.83;;;18.90;99.90;;;;;;5082503;28;20550;-64
2023/07/04 10:14:47;;;;;;;3.30;1.63;;;18.80;99.90;;;;;;5081906;28;20552;-63
2023/07/04 10:17:39;;;;;;;2.95;1.27;;;18.50;99.90;;;;;;5081594;28;20555;-64
2023/07/04 10:20:13;;;;;;;6.38;1.25;;;18.20;99.90;;;;;;5077706;28;20695;-65
2023/07/04 10:22:46;;;;;;;6.05;1.83;;;18.10;99.90;;;;;;5077481;28;20237;-63
2023/07/04 10:25:16;;;;;;;6.47;2.25;;;18.40;99.90;;;;;;5080672;28;20048;-65
2023/07/04 10:27:47;;;;;;;5.28;2.05;;;18.70;99.90;;;;;;5084015;28;20063;-64
2023/07/04 10:30:18;;;;;;;5.43;1.67;;;18.60;99.90;;;;;;5082610;28;20048;-64
2023/07/04 10:32:59;;;;;;;5.13;1.50;;;18.70;99.90;;;;;;5081207;28;20042;-64
2023/07/04 10:35:30;;;;;;;5.22;1.30;;;18.80;99.90;;;;;;5084282;28;20040;-64
2023/07/04 10:38:04;;;;;;;6.10;2.30;;;18.90;99.90;;;;;;5082398;28;20036;-64
2023/07/04 10:40:35;;;;;;;4.75;2.38;;;18.70;99.90;;;;;;5081002;28;20048;-65
2023/07/04 10:43:12;;;;;;;4.82;1.90;;;18.70;99.90;;;;;;5077360;28;20048;-65
2023/07/04 10:45:41;;;;;;;2.55;1.23;;;18.40;99.90;;;;;;5067580;28;20459;-64
2023/07/04 10:48:32;;;;;;;4.47;1.85;;;18.10;99.90;;;;;;5079001;28;20041;-64
2023/07/04 10:51:06;;;;;;;2.58;2.03;;;17.70;99.90;;;;;;5082251;28;20048;-63
2023/07/04 10:53:33;;;;;;;8.98;2.10;;;17.40;99.90;;;;;;5079227;28;20085;-64
2023/07/04 10:56:03;;;;;;;5.97;1.70;;;17.50;99.90;;;;;;5080350;28;20135;-64
2023/07/04 10:58:36;;;;;;;6.60;2.30;;;17.40;99.90;;;;;;5081518;28;20048;-64
2023/07/04 11:01:13;;;;;;;3.30;2.22;;;17.60;99.90;;;;;;5083041;28;20024;-64
2023/07/04 11:03:49;;;;;;;3.90;1.58;;;17.70;99.90;;;;;;5076930;28;20583;-64
2023/07/04 11:06:37;;;;;;;2.83;1.38;;;17.90;99.90;;;;;;5076711;28;20117;-64
2023/07/04 11:09:13;;;;;;;3.63;1.13;;;18.10;99.90;;;;;;5080739;28;20098;-64
2023/07/04 11:11:45;;;;;;;1.17;0.70;;;18.40;99.90;;;;;;5067408;28;20039;-65
2023/07/04 11:14:16;;;;;;;1.50;0.85;;;18.30;99.90;;;;;;5077845;28;20101;-65
2023/07/04 11:16:44;;;;;;;2.75;0.82;;;18.20;99.90;;;;;;5078141;28;20589;-64
2023/07/04 11:19:22;;;;;;;5.13;1.55;;;18.40;99.90;;;;;;5078256;28;20040;-64
2023/07/04 11:22:04;;;;;;;4.47;1.02;;;18.40;99.90;;;;;;5075925;28;20036;-63
2023/07/04 11:24:45;;;;;;;3.92;1.48;;;18.50;99.90;;;;;;5081369;28;20054;-65
2023/07/04 11:27:24;;;;;;;3.40;1.63;;;18.60;99.90;;;;;;5079093;28;20052;-64
2023/07/04 11:30:00;;;;;;;2.95;1.17;;;18.50;99.90;;;;;;5079021;28;20041;-64
2023/07/04 11:32:52;;;;;;;4.57;1.55;;;18.10;99.90;;;;;;5078519;28;20057;-65
2023/07/04 11:35:23;;;;;;;3.85;1.23;;;17.80;99.90;;;;;;5077469;28;20150;-64
2023/07/04 11:38:02;;;;;;;5.38;1.67;;;17.70;99.90;;;;;;5072228;28;20040;-64
2023/07/04 11:40:43;;;;;;;4.97;2.92;;;17.60;99.90;;;;;;5081060;28;20129;-64
2023/07/04 11:43:27;;;;;;;5.63;1.50;;;17.40;99.90;;;;;;5079268;28;20480;-65
2023/07/04 11:45:57;;;;;;;3.85;1.98;;;17.20;99.90;;;;;;5079766;28;20044;-63
2023/07/04 11:48:27;;;;;;;;;;;17.10;99.90;;;;;;5077029;28;20052;-64
2023/07/04 11:51:04;;;;;;;5.78;1.60;;;16.70;99.90;;;;;;5080649;28;19920;-64
2023/07/04 11:53:52;;;;;;;4.70;2.65;;;16.40;99.90;;;;;;5074722;28;20139;-65
2023/07/04 11:56:34;;;;;;;4.30;1.40;;;16.20;99.90;;;;;;5078756;28;20047;-63
2023/07/04 11:59:10;;;;;;;5.22;1.95;;;16.10;99.90;;;;;;5078422;28;20042;-64
2023/07/04 12:01:56;;;;;;;5.78;1.98;;;16.10;99.90;;;;;;5077856;28;20352;-64
2023/07/04 12:04:35;;;;;;;11.00;2.15;;;16.20;99.90;;;;;;5077332;28;20044;-64
2023/07/04 12:07:11;;;;;;;2.00;0.98;;;16.10;99.90;;;;;;5080565;28;20421;-65
2023/07/04 12:10:05;;;;;;;3.38;1.02;;;16.30;99.90;;;;;;5078711;28;20059;-64
2023/07/04 12:12:36;;;;;;;1.83;0.90;;;16.70;99.90;;;;;;5080170;28;20052;-64
2023/07/04 12:15:09;;;;;;;4.30;1.98;;;17.00;99.90;;;;;;5078499;28;20040;-65
2023/07/04 12:17:38;;;;;;;1.65;0.77;;;17.20;99.90;;;;;;5081553;28;20061;-65
2023/07/04 12:20:13;;;;;;;3.73;1.57;;;17.60;99.90;;;;;;5072088;28;20047;-65
2023/07/04 12:22:48;;;;;;;6.53;1.25;;;17.80;99.90;;;;;;5079367;28;20048;-64
2023/07/04 12:25:27;;;;;;;1.75;1.00;;;17.90;99.90;;;;;;5077039;28;20051;-65
2023/07/04 12:27:56;;;;;;;1.17;1.10;;;17.90;99.90;;;;;;5078484;28;20063;-64
2023/07/04 12:30:23;;;;;;;3.42;1.08;;;17.90;99.90;;;;;;5079733;28;20048;-65
2023/07/04 12:32:53;;;;;;;1.58;1.15;;;18.00;99.90;;;;;;5079110;28;20068;-64
2023/07/04 12:35:35;;;;;;;3.03;1.40;;;17.90;99.90;;;;;;5074691;28;20279;-64
2023/07/04 12:38:02;;;;;;;3.88;1.30;;;17.90;99.90;;;;;;5076850;28;20043;-64
2023/07/04 12:40:31;;;;;;;4.05;1.40;;;17.70;99.90;;;;;;5077773;28;20712;-64
2023/07/04 12:43:03;;;;;;;2.58;1.38;;;17.60;99.90;;;;;;5081212;28;20093;-65
2023/07/04 12:45:33;;;;;;;3.95;1.50;;;17.50;99.90;;;;;;5079016;28;20048;-64
2023/07/04 12:48:03;;;;;;;2.20;1.02;;;17.60;99.90;;;;;;5079272;28;20497;-65
2023/07/04 12:50:34;;;;;;;0.75;0.68;;;17.60;99.90;;;;;;5076461;28;20055;-65
2023/07/04 12:53:03;;;;;;;1.38;0.75;;;17.60;99.90;;;;;;5077266;28;20074;-64
2023/07/04 12:55:34;;;;;;;3.10;0.80;;;17.80;99.90;;;;;;5076917;28;20519;-64
2023/07/04 12:58:03;;;;;;;;;;;17.90;99.90;;;;;;5080343;28;20060;-64
2023/07/04 13:00:32;;;;;;;3.13;1.15;;;18.00;99.90;;;;;;5081420;28;19928;-64
2023/07/04 13:03:08;;;;;;;2.00;1.02;;;18.10;99.90;;;;;;5078190;28;20052;-64
2023/07/04 13:05:40;;;;;;;1.80;0.80;;;18.20;99.90;;;;;;5078810;28;20127;-64
2023/07/04 13:08:25;;;;;;;2.25;0.80;;;18.20;99.90;;;;;;5072799;28;20499;-65